Time;durP1;ratioP1;P1;durP2;ratioP2;P2;SDS_P1;SDS_P2;PMS_P1;PMS_P2;Temp;Humidity;BMP_temperature;BMP_pressure;BME280_temperature;BME280_humidity;BME280_pressure;Samples;Min_cycle;Max_cycle;Signal;HPM_P1;HPM_P2
2023/08/12 00:00:16;;;;;;;5.82;3.30;;;;;;;18.96;100.00;100842.75;6223985;28;20038;-95
2023/08/12 00:03:22;;;;;;;7.43;3.50;;;;;;;18.93;100.00;100842.09;6223591;28;20472;-94
2023/08/12 00:06:24;;;;;;;7.25;3.00;;;;;;;18.92;100.00;100834.38;6215300;28;20427;-94
2023/08/12 00:09:26;;;;;;;4.82;3.40;;;;;;;18.89;100.00;100830.31;6224763;28;20089;-95
2023/08/12 00:12:29;;;;;;;6.32;3.40;;;;;;;18.91;100.00;100830.13;6213943;28;20527;-95
2023/08/12 00:15:30;;;;;;;5.75;3.33;;;;;;;18.93;100.00;100830.75;6225789;28;20056;-94
2023/08/12 00:18:36;;;;;;;3.85;3.05;;;;;;;18.96;100.00;100840.13;6233391;28;20037;-94
2023/08/12 00:21:38;;;;;;;5.40;3.28;;;;;;;18.99;100.00;100829.28;6231234;28;20050;-95
2023/08/12 00:24:40;;;;;;;7.03;3.78;;;;;;;19.02;100.00;100826.31;6215908;28;20080;-95
2023/08/12 00:27:42;;;;;;;8.60;3.22;;;;;;;19.00;100.00;100823.84;6221943;28;20069;-94
2023/08/12 00:30:44;;;;;;;6.50;3.55;;;;;;;19.02;100.00;100829.75;6223388;28;20050;-94
2023/08/12 00:33:45;;;;;;;6.93;3.17;;;;;;;19.01;100.00;100825.53;6215107;28;20104;-96
2023/08/12 00:36:48;;;;;;;9.27;3.67;;;;;;;18.99;100.00;100817.00;6224972;28;20129;-94
2023/08/12 00:39:50;;;;;;;9.82;3.50;;;;;;;19.00;100.00;100820.44;6216379;28;20492;-95
2023/08/12 00:42:52;;;;;;;7.88;3.15;;;;;;;19.00;100.00;100812.56;6216883;28;20137;-95
2023/08/12 00:45:54;;;;;;;10.23;3.95;;;;;;;19.01;100.00;100811.59;6216513;28;20057;-94
2023/08/12 00:48:56;;;;;;;6.95;3.90;;;;;;;19.05;100.00;100811.06;6219689;28;20058;-95
2023/08/12 00:51:59;;;;;;;7.22;3.85;;;;;;;19.07;100.00;100798.59;6216364;28;20046;-94
2023/08/12 00:55:02;;;;;;;3.78;3.38;;;;;;;19.07;100.00;100795.97;6233119;28;20037;-95
2023/08/12 00:58:04;;;;;;;6.47;3.25;;;;;;;19.09;100.00;100791.38;6239809;28;20041;-95
2023/08/12 01:01:07;;;;;;;4.40;3.35;;;;;;;19.12;100.00;100780.53;6234775;28;20049;-95
2023/08/12 01:04:09;;;;;;;6.05;3.17;;;;;;;19.15;100.00;100780.19;6233836;28;20160;-94
2023/08/12 01:07:11;;;;;;;4.93;3.65;;;;;;;19.17;100.00;100766.88;6236889;28;20460;-95
2023/08/12 01:10:20;;;;;;;6.28;3.30;;;;;;;19.22;100.00;100766.38;6248403;28;20056;-95
2023/08/12 01:13:50;;;;;;;7.25;3.53;;;;;;;19.27;100.00;100756.19;6218948;28;20046;-95
2023/08/12 01:17:05;;;;;;;9.93;3.90;;;;;;;19.27;100.00;100750.94;6217271;28;20052;-95
2023/08/12 01:20:09;;;;;;;6.50;3.67;;;;;;;19.28;100.00;100752.59;6249034;28;20046;-95
2023/08/12 01:23:13;;;;;;;6.70;3.80;;;;;;;19.26;100.00;100754.56;6228640;28;20050;-96
2023/08/12 01:26:15;;;;;;;4.97;3.83;;;;;;;19.27;100.00;100749.13;6219232;28;20511;-95
2023/08/12 01:29:18;;;;;;;7.70;3.90;;;;;;;19.26;100.00;100746.69;6217195;28;20463;-95
2023/08/12 01:33:04;;;;;;;4.95;3.55;;;;;;;19.27;100.00;100743.06;6228225;28;20049;-94
2023/08/12 01:36:13;;;;;;;7.50;4.10;;;;;;;19.27;100.00;100737.81;6224883;28;20512;-94
2023/08/12 01:39:16;;;;;;;5.97;4.03;;;;;;;19.24;100.00;100736.34;6211766;28;20056;-95
2023/08/12 01:42:19;;;;;;;6.88;3.70;;;;;;;19.27;100.00;100741.25;6235390;28;20503;-95
2023/08/12 01:45:22;;;;;;;7.55;3.83;;;;;;;19.28;100.00;100731.59;6234848;28;20041;-95
2023/08/12 01:48:24;;;;;;;13.18;3.95;;;;;;;19.28;100.00;100728.97;6217181;28;20045;-95
2023/08/12 01:51:26;;;;;;;5.85;3.75;;;;;;;19.31;100.00;100728.63;6215597;28;20054;-95
2023/08/12 01:54:33;;;;;;;5.65;3.78;;;;;;;19.30;100.00;100729.59;6214894;28;20050;-95
2023/08/12 01:57:34;;;;;;;5.13;3.90;;;;;;;19.29;100.00;100717.47;6214392;28;20156;-95
2023/08/12 02:00:38;;;;;;;5.65;3.78;;;;;;;19.33;100.00;100716.94;6210614;28;20311;-96
2023/08/12 02:03:40;;;;;;;5.50;3.80;;;;;;;19.35;100.00;100722.84;6222865;28;20041;-95
2023/08/12 02:06:42;;;;;;;4.75;3.53;;;;;;;19.32;100.00;100715.28;6223965;28;20056;-96
2023/08/12 02:09:44;;;;;;;5.05;3.47;;;;;;;19.32;100.00;100723.16;6221065;28;20120;-95
2023/08/12 02:12:46;;;;;;;5.70;3.63;;;;;;;19.32;100.00;100722.34;6216732;28;20160;-95
2023/08/12 02:15:48;;;;;;;10.85;4.03;;;;;;;19.30;100.00;100734.84;6248513;28;20050;-94
2023/08/12 02:18:50;;;;;;;8.25;3.70;;;;;;;19.28;100.00;100747.34;6247837;28;20069;-95
2023/08/12 02:21:52;;;;;;;10.38;4.40;;;;;;;19.23;100.00;100757.50;6247250;28;20080;-95
2023/08/12 02:24:54;;;;;;;4.65;3.63;;;;;;;19.18;100.00;100749.34;6215622;28;20057;-95
2023/08/12 02:27:55;;;;;;;6.72;4.07;;;;;;;19.14;100.00;100749.69;6231553;28;20470;-95
2023/08/12 02:30:57;;;;;;;5.30;4.03;;;;;;;19.12;100.00;100738.53;6215323;28;20503;-94
2023/08/12 02:33:59;;;;;;;4.72;3.67;;;;;;;19.11;100.00;100741.34;6222308;28;20041;-95
2023/08/12 02:37:01;;;;;;;8.13;4.13;;;;;;;19.06;100.00;100748.91;6219599;28;20044;-95
2023/08/12 02:40:05;;;;;;;7.65;3.95;;;;;;;19.03;100.00;100744.00;6213381;28;20140;-96
2023/08/12 02:43:10;;;;;;;5.45;4.50;;;;;;;19.04;100.00;100735.97;6215112;28;20078;-95
2023/08/12 02:46:14;;;;;;;5.00;3.97;;;;;;;19.02;100.00;100740.56;6218482;28;20053;-96
2023/08/12 02:49:17;;;;;;;5.78;4.05;;;;;;;19.02;100.00;100756.31;6222908;28;20050;-96
2023/08/12 02:52:18;;;;;;;7.47;4.00;;;;;;;19.03;100.00;100759.72;6214313;28;20500;-96
2023/08/12 02:55:20;;;;;;;7.72;4.38;;;;;;;19.03;100.00;100754.47;6209654;28;20045;-95
2023/08/12 02:58:22;;;;;;;5.28;3.92;;;;;;;19.06;100.00;100754.97;6216504;28;20101;-94
2023/08/12 03:01:24;;;;;;;5.93;4.05;;;;;;;19.08;100.00;100752.16;6222697;28;20052;-95
2023/08/12 03:04:26;;;;;;;5.90;3.63;;;;;;;19.14;100.00;100757.56;6215818;28;20111;-96
2023/08/12 03:07:28;;;;;;;5.85;3.95;;;;;;;19.23;100.00;100745.22;6217297;28;20081;-95
2023/08/12 03:10:30;;;;;;;5.43;3.45;;;;;;;19.33;100.00;100734.50;6210053;28;20060;-95
2023/08/12 03:13:32;;;;;;;5.95;3.47;;;;;;;19.34;100.00;100731.69;6229288;28;20079;-96
2023/08/12 03:16:34;;;;;;;6.05;3.92;;;;;;;19.34;100.00;100739.56;6210336;28;20709;-96
2023/08/12 03:19:36;;;;;;;7.03;4.22;;;;;;;19.42;100.00;100751.00;6219465;28;20124;-95
2023/08/12 03:22:40;;;;;;;8.88;3.83;;;;;;;19.47;100.00;100754.75;6220254;28;20049;-94
2023/08/12 03:25:43;;;;;;;8.65;4.60;;;;;;;19.52;100.00;100765.53;6222648;28;20042;-96
2023/08/12 03:28:45;;;;;;;6.88;4.80;;;;;;;19.38;100.00;100758.44;6233935;28;20136;-96
2023/08/12 03:31:50;;;;;;;8.95;4.93;;;;;;;19.37;100.00;100747.09;6248000;28;20050;-94
2023/08/12 03:34:52;;;;;;;8.15;6.00;;;;;;;19.28;100.00;100750.78;6228508;28;20038;-96
2023/08/12 03:37:54;;;;;;;11.07;6.28;;;;;;;19.21;100.00;100757.69;6218123;28;20060;-94
2023/08/12 03:40:57;;;;;;;8.75;5.93;;;;;;;19.10;100.00;100758.06;6268511;28;20195;-95
2023/08/12 03:44:00;;;;;;;10.27;6.28;;;;;;;19.03;100.00;100765.81;6225779;28;20605;-95
2023/08/12 03:47:01;;;;;;;7.38;6.57;;;;;;;18.98;100.00;100747.16;6215269;28;20042;-95
2023/08/12 03:50:06;;;;;;;9.82;7.57;;;;;;;18.99;100.00;100740.91;6214148;28;20040;-95
2023/08/12 03:53:08;;;;;;;9.82;6.72;;;;;;;19.02;100.00;100758.09;6217793;28;20049;-95
2023/08/12 03:56:15;;;;;;;10.30;6.90;;;;;;;18.99;100.00;100761.09;6212763;28;20045;-94
2023/08/12 03:59:17;;;;;;;10.60;7.22;;;;;;;19.00;100.00;100776.63;6219303;28;20046;-94
2023/08/12 04:02:19;;;;;;;8.93;6.72;;;;;;;18.99;100.00;100769.75;6219967;28;20515;-95
2023/08/12 04:05:21;;;;;;;8.60;6.68;;;;;;;18.99;100.00;100776.81;6223862;28;20046;-95
2023/08/12 04:08:24;;;;;;;10.85;7.63;;;;;;;18.94;100.00;100775.53;6213839;28;20050;-95
2023/08/12 04:11:26;;;;;;;12.38;9.05;;;;;;;18.94;100.00;100782.56;6215823;28;20042;-95
2023/08/12 04:14:28;;;;;;;11.48;8.25;;;;;;;18.95;100.00;100794.69;6217319;28;20143;-94
2023/08/12 04:17:32;;;;;;;13.68;8.30;;;;;;;18.92;100.00;100808.16;6221014;28;20065;-95
2023/08/12 04:20:37;;;;;;;12.02;9.15;;;;;;;18.89;100.00;100806.69;6219270;28;20099;-93
2023/08/12 04:23:39;;;;;;;12.50;9.50;;;;;;;18.75;100.00;100801.28;6220853;28;20054;-92
2023/08/12 04:26:41;;;;;;;12.75;9.15;;;;;;;18.64;100.00;100803.28;6227814;28;20527;-92
2023/08/12 04:29:45;;;;;;;12.55;9.98;;;;;;;18.54;100.00;100805.28;6207774;28;20566;-91
2023/08/12 04:32:48;;;;;;;16.90;10.82;;;;;;;18.45;100.00;100806.25;6230164;28;20037;-92
2023/08/12 04:35:53;;;;;;;15.88;10.77;;;;;;;18.40;100.00;100805.94;6230935;28;20049;-92
2023/08/12 04:38:55;;;;;;;15.40;11.10;;;;;;;18.40;100.00;100816.41;6218222;28;20388;-91
2023/08/12 04:41:58;;;;;;;15.98;10.23;;;;;;;18.39;100.00;100813.00;6221734;28;20097;-92
2023/08/12 04:45:00;;;;;;;15.98;10.63;;;;;;;18.39;100.00;100806.94;6225265;28;20129;-92
2023/08/12 04:48:06;;;;;;;14.48;11.52;;;;;;;18.39;100.00;100809.56;6218359;28;20048;-92
2023/08/12 04:51:08;;;;;;;16.02;11.23;;;;;;;18.38;100.00;100815.75;6216531;28;20050;-92
2023/08/12 04:54:10;;;;;;;16.30;13.05;;;;;;;18.35;100.00;100826.59;6222229;28;20041;-92
2023/08/12 04:57:12;;;;;;;17.33;11.27;;;;;;;18.34;100.00;100823.16;6234039;28;20072;-92
2023/08/12 05:00:14;;;;;;;13.38;10.90;;;;;;;18.39;100.00;100820.84;6224318;28;20073;-93
2023/08/12 05:03:17;;;;;;;14.88;11.35;;;;;;;18.45;100.00;100829.84;6217591;28;20058;-92
2023/08/12 05:06:19;;;;;;;16.55;10.65;;;;;;;18.52;100.00;100829.00;6226375;28;20045;-92
2023/08/12 05:09:21;;;;;;;14.13;10.73;;;;;;;18.57;100.00;100828.53;6217965;28;20042;-92
2023/08/12 05:12:23;;;;;;;14.02;10.45;;;;;;;18.61;100.00;100829.84;6219365;28;20245;-93
2023/08/12 05:15:25;;;;;;;16.15;11.02;;;;;;;18.65;100.00;100840.81;6219268;28;20092;-92
2023/08/12 05:18:29;;;;;;;13.45;11.68;;;;;;;18.70;100.00;100836.69;6218183;28;20418;-93
2023/08/12 05:21:30;;;;;;;15.43;11.70;;;;;;;18.77;100.00;100833.44;6217948;28;20060;-93
2023/08/12 05:24:32;;;;;;;17.02;11.45;;;;;;;18.89;100.00;100832.09;6218075;28;20105;-93
2023/08/12 05:27:34;;;;;;;15.05;10.95;;;;;;;19.01;100.00;100835.19;6231461;28;20065;-94
2023/08/12 05:30:36;;;;;;;15.90;11.90;;;;;;;19.15;100.00;100840.56;6219506;28;20038;-93
2023/08/12 05:33:38;;;;;;;13.65;10.95;;;;;;;19.28;100.00;100839.19;6223448;28;20041;-93
2023/08/12 05:36:40;;;;;;;18.25;11.63;;;;;;;19.30;100.00;100842.44;6230381;28;20052;-93
2023/08/12 05:39:42;;;;;;;14.10;10.80;;;;;;;19.26;100.00;100843.81;6217777;28;20049;-93
2023/08/12 05:42:44;;;;;;;12.73;10.63;;;;;;;19.21;100.00;100840.88;6216642;28;20131;-94
2023/08/12 05:45:46;;;;;;;11.98;9.40;;;;;;;19.14;100.00;100838.91;6220946;28;20050;-94
2023/08/12 05:48:48;;;;;;;13.98;10.40;;;;;;;19.14;100.00;100835.47;6216615;28;20069;-93
2023/08/12 05:51:49;;;;;;;13.80;9.90;;;;;;;19.12;100.00;100833.00;6222617;28;20141;-93
2023/08/12 05:54:51;;;;;;;14.35;11.07;;;;;;;19.12;100.00;100821.69;6253200;28;20046;-94
2023/08/12 05:57:53;;;;;;;15.57;11.48;;;;;;;19.14;100.00;100807.41;6223320;28;20581;-94
2023/08/12 06:00:54;;;;;;;14.60;11.25;;;;;;;19.15;100.00;100809.06;6219065;28;20120;-93
2023/08/12 06:03:56;;;;;;;12.98;10.40;;;;;;;19.21;100.00;100810.19;6219260;28;20046;-94
2023/08/12 06:06:58;;;;;;;15.02;10.75;;;;;;;19.26;100.00;100794.75;6222771;28;20037;-94
2023/08/12 06:10:00;;;;;;;15.50;11.15;;;;;;;19.33;100.00;100793.06;6217248;28;20065;-94
2023/08/12 06:13:02;;;;;;;15.23;10.57;;;;;;;19.50;100.00;100787.72;6221399;28;20033;-94
2023/08/12 06:16:04;;;;;;;14.48;10.85;;;;;;;19.69;100.00;100787.31;6228160;28;20058;-94
2023/08/12 06:19:06;;;;;;;17.48;10.93;;;;;;;19.90;100.00;100777.94;6220161;28;20046;-94
2023/08/12 06:22:09;;;;;;;15.13;10.30;;;;;;;20.09;100.00;100771.41;6225786;28;20802;-94
2023/08/12 06:25:11;;;;;;;15.38;10.38;;;;;;;20.27;100.00;100766.63;6216896;28;20048;-94
2023/08/12 06:28:13;;;;;;;13.90;9.63;;;;;;;20.40;100.00;100774.75;6231377;28;20116;-93
2023/08/12 06:31:16;;;;;;;16.73;10.70;;;;;;;20.42;100.00;100779.81;6225414;28;20045;-94
2023/08/12 06:34:18;;;;;;;12.00;9.05;;;;;;;20.51;100.00;100764.78;6228794;28;20623;-94
2023/08/12 06:37:20;;;;;;;14.20;9.75;;;;;;;20.61;100.00;100754.81;6221275;28;20467;-93
2023/08/12 06:40:22;;;;;;;13.52;10.82;;;;;;;20.79;100.00;100751.81;6216440;28;20049;-94
2023/08/12 06:43:24;;;;;;;19.63;10.93;;;;;;;20.95;100.00;100738.47;6216855;28;20391;-94
2023/08/12 06:46:30;;;;;;;13.65;9.70;;;;;;;21.11;100.00;100744.53;6215883;28;20046;-94
2023/08/12 06:49:32;;;;;;;14.20;10.20;;;;;;;21.14;100.00;100734.47;6222202;28;20037;-93
2023/08/12 06:52:34;;;;;;;15.70;9.60;;;;;;;21.19;100.00;100734.72;6221841;28;20381;-94
2023/08/12 06:55:36;;;;;;;12.10;9.98;;;;;;;21.32;100.00;100741.94;6216738;28;20038;-94
2023/08/12 06:58:38;;;;;;;17.45;10.38;;;;;;;21.44;100.00;100731.72;6206249;28;20139;-94
2023/08/12 07:01:39;;;;;;;15.70;9.45;;;;;;;21.61;100.00;100732.31;6212366;28;20114;-94
2023/08/12 07:04:41;;;;;;;12.85;9.95;;;;;;;21.80;100.00;100733.50;6221319;28;20045;-95
2023/08/12 07:07:43;;;;;;;13.70;9.55;;;;;;;21.89;100.00;100729.72;6226051;28;20042;-96
2023/08/12 07:10:45;;;;;;;14.02;9.98;;;;;;;21.96;100.00;100724.50;6238314;28;20049;-95
2023/08/12 07:13:47;;;;;;;13.73;8.75;;;;;;;21.97;100.00;100719.03;6220203;28;20120;-95
2023/08/12 07:16:49;;;;;;;14.90;8.60;;;;;;;22.09;100.00;100693.78;6216473;28;20547;-95
2023/08/12 07:19:51;;;;;;;14.82;9.30;;;;;;;22.24;100.00;100687.63;6215152;28;20038;-96
2023/08/12 07:22:53;;;;;;;13.93;7.93;;;;;;;22.32;100.00;100700.66;6219915;28;20042;-96
2023/08/12 07:25:54;;;;;;;11.38;6.97;;;;;;;22.39;100.00;100705.97;6217285;28;20038;-95
2023/08/12 07:28:56;;;;;;;10.27;7.25;;;;;;;22.52;100.00;100700.75;6210851;28;20168;-95
2023/08/12 07:31:58;;;;;;;12.25;7.03;;;;;;;22.66;100.00;100701.63;6211689;28;20075;-95
2023/08/12 07:35:00;;;;;;;9.23;6.53;;;;;;;22.76;100.00;100687.06;6212619;28;20089;-96
2023/08/12 07:38:02;;;;;;;10.82;7.68;;;;;;;22.78;100.00;100685.03;6226232;28;20052;-95
2023/08/12 07:41:04;;;;;;;9.73;6.85;;;;;;;22.80;100.00;100679.53;6229282;28;20136;-95
2023/08/12 07:44:06;;;;;;;10.38;6.85;;;;;;;22.70;100.00;100672.00;6211605;28;20050;-96
2023/08/12 07:47:08;;;;;;;11.40;7.05;;;;;;;22.50;100.00;100664.00;6216438;28;20048;-96
2023/08/12 07:50:10;;;;;;;14.20;6.78;;;;;;;22.33;100.00;100675.88;6217860;28;20117;-96
2023/08/12 07:53:12;;;;;;;10.13;6.40;;;;;;;22.23;100.00;100672.78;6214973;28;20420;-96
2023/08/12 07:56:14;;;;;;;10.57;6.43;;;;;;;22.20;100.00;100676.63;6220656;28;20124;-96
2023/08/12 07:59:17;;;;;;;9.95;6.55;;;;;;;22.10;100.00;100676.94;6218814;28;20562;-96
2023/08/12 08:02:19;;;;;;;8.23;6.38;;;;;;;22.04;100.00;100676.91;6219350;28;20049;-96
2023/08/12 08:05:21;;;;;;;10.82;7.07;;;;;;;21.93;100.00;100680.88;6215549;28;20054;-96
2023/08/12 08:08:23;;;;;;;8.27;6.88;;;;;;;21.88;100.00;100692.00;6223833;28;20034;-96
2023/08/12 08:11:25;;;;;;;11.10;6.72;;;;;;;21.84;100.00;100697.88;6213363;28;20050;-95
2023/08/12 08:14:27;;;;;;;11.90;7.55;;;;;;;21.87;100.00;100694.84;6215138;28;20407;-96
2023/08/12 08:17:29;;;;;;;9.68;6.70;;;;;;;22.01;100.00;100687.81;6215874;28;20513;-96
2023/08/12 08:20:31;;;;;;;10.25;7.03;;;;;;;22.33;100.00;100694.34;6217774;28;20036;-95
2023/08/12 08:23:33;;;;;;;7.65;6.47;;;;;;;22.75;100.00;100681.97;6216575;28;20053;-96
2023/08/12 08:26:35;;;;;;;9.38;6.50;;;;;;;23.14;100.00;100683.94;6261383;28;20057;-95
2023/08/12 08:29:36;;;;;;;8.65;6.82;;;;;;;23.43;100.00;100677.50;6224572;28;20535;-96
2023/08/12 08:32:38;;;;;;;8.60;6.20;;;;;;;23.69;100.00;100664.50;6230981;28;20163;-96
2023/08/12 08:35:40;;;;;;;12.70;6.75;;;;;;;23.84;100.00;100663.28;6221492;28;20491;-96
2023/08/12 08:38:42;;;;;;;10.23;5.85;;;;;;;23.78;100.00;100658.00;6218855;28;20069;-95
2023/08/12 08:41:47;;;;;;;11.07;6.60;;;;;;;23.62;100.00;100654.72;6209368;28;20132;-95
2023/08/12 08:44:53;;;;;;;15.55;6.07;;;;;;;23.55;100.00;100656.56;6214794;28;20228;-95
2023/08/12 08:47:56;;;;;;;7.63;5.72;;;;;;;23.64;100.00;100654.53;6222530;28;20120;-96
2023/08/12 08:51:00;;;;;;;8.60;5.97;;;;;;;23.63;100.00;100656.34;6199248;28;20046;-96
2023/08/12 08:54:04;;;;;;;8.02;6.13;;;;;;;23.41;100.00;100658.38;6222870;28;20050;-96
2023/08/12 08:57:08;;;;;;;7.85;5.88;;;;;;;23.18;100.00;100673.81;6219966;28;20046;-96
2023/08/12 09:00:17;;;;;;;;;;;;;;;22.94;100.00;100665.38;6216342;28;20050;-95
2023/08/12 09:03:20;;;;;;;8.32;6.47;;;;;;;22.68;100.00;100665.28;6221453;28;20342;-96
2023/08/12 09:06:25;;;;;;;7.85;6.03;;;;;;;22.49;100.00;100675.56;6216641;28;20412;-96
2023/08/12 09:09:27;;;;;;;8.07;5.90;;;;;;;22.36;100.00;100671.06;6218692;28;20373;-96
2023/08/12 09:12:31;;;;;;;10.90;6.35;;;;;;;22.22;100.00;100671.97;6221652;28;20042;-96
2023/08/12 09:15:33;;;;;;;9.65;6.13;;;;;;;22.20;100.00;100671.34;6218236;28;20118;-96
2023/08/12 09:18:37;;;;;;;10.32;6.47;;;;;;;22.44;100.00;100666.63;6219070;28;20057;-96
2023/08/12 09:21:39;;;;;;;7.95;5.72;;;;;;;22.70;100.00;100652.72;6222109;28;20133;-96
2023/08/12 09:24:42;;;;;;;8.82;5.38;;;;;;;22.84;100.00;100654.41;6225694;28;20050;-96
2023/08/12 09:27:47;;;;;;;8.10;6.00;;;;;;;23.11;100.00;100643.94;6228142;28;20051;-96
2023/08/12 09:30:52;;;;;;;8.02;6.40;;;;;;;23.32;100.00;100637.66;6224609;28;20354;-96
2023/08/12 09:34:12;;;;;;;10.05;6.32;;;;;;;23.74;100.00;100625.88;6218926;28;20108;-96
2023/08/12 09:37:14;;;;;;;7.55;5.93;;;;;;;24.30;100.00;100616.59;6220202;28;20513;-96
2023/08/12 09:40:16;;;;;;;7.68;5.68;;;;;;;24.72;100.00;100603.81;6252144;28;20050;-96
2023/08/12 09:43:18;;;;;;;8.45;5.78;;;;;;;25.00;100.00;100594.66;6215006;28;20072;-95
2023/08/12 09:46:23;;;;;;;8.18;5.60;;;;;;;25.04;100.00;100594.03;6216257;28;20149;-96
2023/08/12 09:49:25;;;;;;;8.77;5.20;;;;;;;25.00;100.00;100594.66;6215188;28;20050;-95
2023/08/12 09:52:27;;;;;;;7.00;5.40;;;;;;;24.86;100.00;100589.44;6200989;28;20788;-96
2023/08/12 09:55:35;;;;;;;7.18;5.32;;;;;;;24.78;100.00;100589.69;6219001;28;20045;-95
2023/08/12 09:58:37;;;;;;;7.35;5.10;;;;;;;24.79;100.00;100587.84;6204512;28;20053;-96
2023/08/12 10:01:41;;;;;;;7.85;4.90;;;;;;;24.68;100.00;100595.47;6217888;28;20037;-96
2023/08/12 10:04:45;;;;;;;7.80;5.60;;;;;;;24.47;100.00;100599.25;6220218;28;20045;-96
2023/08/12 10:07:49;;;;;;;6.80;5.45;;;;;;;24.21;100.00;100600.13;6217059;28;20074;-96
2023/08/12 10:10:52;;;;;;;9.23;5.97;;;;;;;24.14;100.00;100609.91;6219163;28;20041;-95
2023/08/12 10:14:09;;;;;;;7.03;5.68;;;;;;;24.20;100.00;100606.44;6217453;28;20034;-96
2023/08/12 10:17:12;;;;;;;6.90;5.90;;;;;;;24.51;100.00;100599.63;6213516;28;20053;-96
2023/08/12 10:20:22;;;;;;;9.75;6.43;;;;;;;24.74;100.00;100606.22;6217002;28;20041;-96
2023/08/12 10:23:24;;;;;;;10.05;5.78;;;;;;;24.97;100.00;100622.38;6215982;28;20046;-95
2023/08/12 10:26:26;;;;;;;8.00;5.63;;;;;;;25.10;100.00;100624.13;6223715;28;20050;-96
2023/08/12 10:29:30;;;;;;;6.53;5.72;;;;;;;25.20;100.00;100618.38;6213984;28;20091;-96
2023/08/12 10:32:33;;;;;;;9.27;5.50;;;;;;;25.18;100.00;100612.50;6214495;28;20046;-95
2023/08/12 10:35:46;;;;;;;10.07;5.47;;;;;;;25.37;100.00;100613.38;6216697;28;20462;-95
2023/08/12 10:38:48;;;;;;;5.90;5.30;;;;;;;25.68;100.00;100599.22;6230358;28;20049;-96
2023/08/12 10:41:52;;;;;;;6.05;5.22;;;;;;;26.03;100.00;100572.13;6217959;28;20053;-96
2023/08/12 10:44:58;;;;;;;5.35;4.82;;;;;;;26.50;100.00;100569.69;6210356;28;20645;-96
2023/08/12 10:48:23;;;;;;;5.82;5.22;;;;;;;26.78;100.00;100546.03;6215390;28;20046;-96
2023/08/12 10:51:46;;;;;;;5.88;4.70;;;;;;;26.81;100.00;100542.13;6214525;28;20420;-96
2023/08/12 10:54:48;;;;;;;5.65;4.78;;;;;;;27.02;100.00;100538.91;6217038;28;20131;-96
2023/08/12 10:57:53;;;;;;;5.53;5.00;;;;;;;27.28;100.00;100532.38;6221241;28;20133;-96
2023/08/12 11:00:58;;;;;;;5.18;4.57;;;;;;;27.58;100.00;100544.72;6214764;28;20065;-96
2023/08/12 11:04:00;;;;;;;5.22;4.80;;;;;;;27.50;100.00;100542.38;6214475;28;20410;-96
2023/08/12 11:07:15;;;;;;;4.80;3.90;;;;;;;27.37;100.00;100534.66;6197560;28;20188;-96
2023/08/12 11:10:22;;;;;;;4.72;4.22;;;;;;;27.37;100.00;100532.00;6214375;28;20404;-95
2023/08/12 11:13:27;;;;;;;5.03;4.25;;;;;;;27.43;100.00;100544.38;6251708;28;20096;-96
2023/08/12 11:16:36;;;;;;;4.70;4.30;;;;;;;27.24;100.00;100535.72;6212173;28;20066;-96
2023/08/12 11:19:38;;;;;;;4.40;4.00;;;;;;;27.03;100.00;100529.91;6222298;28;20555;-96
2023/08/12 11:22:42;;;;;;;5.55;4.10;;;;;;;26.91;100.00;100525.63;6217066;28;20056;-95
2023/08/12 11:25:45;;;;;;;4.40;4.00;;;;;;;26.99;100.00;100534.06;6231411;28;20046;-96
2023/08/12 11:28:47;;;;;;;6.30;3.88;;;;;;;27.14;100.00;100528.28;6217516;28;20034;-95
2023/08/12 11:31:48;;;;;;;4.72;4.15;;;;;;;27.53;100.00;100527.81;6217761;28;20042;-95
2023/08/12 11:34:50;;;;;;;4.60;3.50;;;;;;;27.74;100.00;100521.91;6215417;28;20038;-96
2023/08/12 11:37:55;;;;;;;5.10;3.58;;;;;;;27.59;100.00;100519.72;6217920;28;20068;-96
2023/08/12 11:41:00;;;;;;;6.85;4.25;;;;;;;27.17;100.00;100517.19;6216625;28;20125;-96
2023/08/12 11:44:04;;;;;;;4.00;3.70;;;;;;;26.93;100.00;100511.06;6220572;28;20570;-95
2023/08/12 11:47:06;;;;;;;3.95;3.55;;;;;;;27.35;100.00;100510.97;6216128;28;20605;-95
2023/08/12 11:50:10;;;;;;;3.97;3.58;;;;;;;27.82;100.00;100504.78;6214972;28;20053;-94
2023/08/12 11:53:13;;;;;;;2.92;2.72;;;;;;;27.99;100.00;100508.31;6212410;28;20049;-94
2023/08/12 11:56:16;;;;;;;3.80;3.22;;;;;;;27.79;100.00;100505.22;6214070;28;20042;-95
2023/08/12 11:59:18;;;;;;;8.40;3.05;;;;;;;27.41;100.00;100504.72;6214443;28;20593;-95
2023/08/12 12:02:20;;;;;;;4.13;3.75;;;;;;;27.24;100.00;100499.31;6215074;28;20611;-95
2023/08/12 12:05:26;;;;;;;4.53;3.03;;;;;;;27.27;100.00;100493.53;6211345;28;20499;-95
2023/08/12 12:08:31;;;;;;;4.22;3.30;;;;;;;27.20;100.00;100484.84;6216747;28;20048;-95
2023/08/12 12:11:33;;;;;;;3.58;3.28;;;;;;;27.51;100.00;100488.19;6215460;28;20048;-94
2023/08/12 12:14:36;;;;;;;3.78;3.00;;;;;;;27.79;100.00;100482.09;6214014;28;20045;-94
2023/08/12 12:17:41;;;;;;;4.68;3.45;;;;;;;27.60;100.00;100497.44;6211856;28;20046;-94
2023/08/12 12:21:03;;;;;;;4.38;3.50;;;;;;;28.19;100.00;100475.94;6209741;28;20500;-94
2023/08/12 12:24:06;;;;;;;3.47;3.17;;;;;;;28.73;100.00;100473.69;6215291;28;20107;-93
2023/08/12 12:27:09;;;;;;;3.15;2.95;;;;;;;29.36;100.00;100469.00;6213738;28;20489;-93
2023/08/12 12:30:13;;;;;;;2.90;2.70;;;;;;;29.65;100.00;100455.47;6213621;28;20045;-94
2023/08/12 12:33:14;;;;;;;5.03;2.67;;;;;;;29.59;100.00;100451.13;6216093;28;20506;-93
2023/08/12 12:36:17;;;;;;;3.10;2.67;;;;;;;29.74;100.00;100453.19;6202743;28;20081;-94
2023/08/12 12:39:19;;;;;;;2.90;2.60;;;;;;;29.70;100.00;100458.22;6248530;28;20050;-94
2023/08/12 12:42:22;;;;;;;2.83;2.63;;;;;;;29.33;100.00;100458.03;6216471;28;20038;-94
2023/08/12 12:45:25;;;;;;;3.15;2.78;;;;;;;28.85;100.00;100456.81;6214777;28;20049;-94
2023/08/12 12:48:27;;;;;;;4.22;2.45;;;;;;;28.23;100.00;100452.34;6211296;28;20042;-95
2023/08/12 12:51:30;;;;;;;4.07;2.40;;;;;;;27.81;100.00;100448.09;6215054;28;20044;-95
2023/08/12 12:54:32;;;;;;;2.72;2.50;;;;;;;27.48;100.00;100448.78;6214604;28;20044;-95
2023/08/12 12:57:34;;;;;;;2.22;2.03;;;;;;;27.44;100.00;100440.44;6211978;28;20049;-95
2023/08/12 13:00:36;;;;;;;2.95;2.63;;;;;;;27.56;100.00;100440.44;6213534;28;20416;-95
2023/08/12 13:03:38;;;;;;;3.50;2.20;;;;;;;27.82;100.00;100428.44;6215356;28;20451;-94
2023/08/12 13:06:40;;;;;;;2.10;1.77;;;;;;;28.06;100.00;100429.16;6213686;28;20518;-95
2023/08/12 13:09:42;;;;;;;2.33;2.13;;;;;;;28.01;100.00;100426.41;6215822;28;20140;-95
2023/08/12 13:12:44;;;;;;;2.33;2.13;;;;;;;28.05;100.00;100426.72;6215303;28;20049;-95
2023/08/12 13:15:46;;;;;;;1.80;1.55;;;;;;;28.09;100.00;100430.53;6214588;28;20038;-94
2023/08/12 13:18:48;;;;;;;1.70;1.60;;;;;;;27.91;100.00;100437.66;6215058;28;20408;-95
2023/08/12 13:21:50;;;;;;;1.98;1.58;;;;;;;27.85;100.00;100435.97;6214942;28;20045;-95
2023/08/12 13:24:52;;;;;;;2.05;1.65;;;;;;;27.91;100.00;100436.88;6213699;28;20100;-95
2023/08/12 13:27:54;;;;;;;1.50;1.40;;;;;;;28.04;100.00;100446.41;6220325;28;20037;-95
2023/08/12 13:30:56;;;;;;;1.33;1.13;;;;;;;28.07;100.00;100436.09;6214467;28;20356;-95
2023/08/12 13:33:58;;;;;;;1.52;1.42;;;;;;;28.08;100.00;100440.38;6215458;28;20046;-95
2023/08/12 13:37:00;;;;;;;1.45;1.35;;;;;;;28.28;100.00;100441.78;6218378;28;20042;-94
2023/08/12 13:40:03;;;;;;;1.92;1.30;;;;;;;28.49;100.00;100448.25;6215113;28;20506;-94
2023/08/12 13:43:05;;;;;;;1.20;1.10;;;;;;;28.81;100.00;100437.81;6213279;28;20164;-95
2023/08/12 13:46:09;;;;;;;1.20;1.10;;;;;;;28.61;100.00;100434.88;6206858;28;20463;-94
2023/08/12 13:49:11;;;;;;;1.98;0.95;;;;;;;28.30;100.00;100442.34;6216352;28;20111;-95
2023/08/12 13:52:13;;;;;;;1.30;1.17;;;;;;;28.22;100.00;100432.88;6216820;28;20573;-95
2023/08/12 13:55:15;;;;;;;1.48;0.80;;;;;;;28.32;100.00;100430.41;6213424;28;20650;-95
2023/08/12 13:58:17;;;;;;;1.13;1.02;;;;;;;28.42;100.00;100432.44;6214207;28;20159;-95